Time;durP1;ratioP1;P1;durP2;ratioP2;P2;SDS_P1;SDS_P2;PMS_P1;PMS_P2;Temp;Humidity;BMP_temperature;BMP_pressure;BME280_temperature;BME280_humidity;BME280_pressure;Samples;Min_cycle;Max_cycle;Signal;HPM_P1;HPM_P2
2022/05/27 00:01:33;;;;;;;0.10;0.10;;;;;;;;;;5075667;28;20295;-62
2022/05/27 00:04:00;;;;;;;0.10;0.10;;;;;;;;;;5073102;28;20206;-64
2022/05/27 00:06:27;;;;;;;0.00;0.00;;;;;;;;;;5075272;28;20495;-63
2022/05/27 00:08:54;;;;;;;0.10;0.10;;;;;;;;;;5073454;28;20319;-63
2022/05/27 00:11:22;;;;;;;0.00;0.00;;;;;;;;;;5073269;28;20240;-63
2022/05/27 00:13:49;;;;;;;0.00;0.00;;;;;;;;;;5074771;28;20411;-64
2022/05/27 00:16:15;;;;;;;0.00;0.00;;;;;;;;;;5071790;28;20266;-63
2022/05/27 00:18:41;;;;;;;0.10;0.10;;;;;;;;;;5076758;28;20516;-63
2022/05/27 00:21:08;;;;;;;0.10;0.10;;;;;;;;;;5069848;28;20241;-62
2022/05/27 00:23:34;;;;;;;0.10;0.10;;;;;;;;;;5078488;28;20206;-62
2022/05/27 00:26:01;;;;;;;0.10;0.10;;;;;;;;;;5067836;28;20290;-64
2022/05/27 00:28:28;;;;;;;0.10;0.10;;;;;;;;;;5080153;28;20276;-62
2022/05/27 00:30:54;;;;;;;0.00;0.00;;;;;;;;;;5066190;28;20508;-63
2022/05/27 00:33:21;;;;;;;0.00;0.00;;;;;;;;;;5081857;28;20209;-62
2022/05/27 00:35:47;;;;;;;0.10;0.10;;;;;;;;;;5063814;28;20240;-63
2022/05/27 00:38:13;;;;;;;0.10;0.10;;;;;;;;;;5083855;28;20204;-63
2022/05/27 00:40:40;;;;;;;0.10;0.10;;;;;;;;;;5061840;28;20248;-64
2022/05/27 00:43:07;;;;;;;0.00;0.00;;;;;;;;;;5085462;28;20223;-63
2022/05/27 00:45:35;;;;;;;0.10;0.10;;;;;;;;;;5060013;28;20248;-62
2022/05/27 00:48:02;;;;;;;0.10;0.10;;;;;;;;;;5086742;28;20563;-62
2022/05/27 00:50:30;;;;;;;0.10;0.10;;;;;;;;;;5058857;28;20342;-63
2022/05/27 00:52:56;;;;;;;0.10;0.10;;;;;;;;;;5088194;28;20204;-62
2022/05/27 00:55:24;;;;;;;0.00;0.00;;;;;;;;;;5057215;28;20205;-62
2022/05/27 00:57:52;;;;;;;0.00;0.00;;;;;;;;;;5089820;28;20209;-61
2022/05/27 01:00:20;;;;;;;0.10;0.10;;;;;;;;;;5056106;28;20433;-62
2022/05/27 01:02:48;;;;;;;0.10;0.10;;;;;;;;;;5090420;28;20265;-62
2022/05/27 01:05:16;;;;;;;0.10;0.10;;;;;;;;;;5055123;28;20209;-62
2022/05/27 01:07:42;;;;;;;0.10;0.10;;;;;;;;;;5091757;28;20251;-62
2022/05/27 01:10:10;;;;;;;0.10;0.10;;;;;;;;;;5053025;28;20301;-62
2022/05/27 01:12:47;;;;;;;0.03;0.03;;;;;;;;;;5093283;28;20224;-62
2022/05/27 01:15:24;;;;;;;0.10;0.10;;;;;;;;;;5054798;28;20289;-63
2022/05/27 01:17:59;;;;;;;0.10;0.10;;;;;;;;;;5089613;28;20504;-63
2022/05/27 01:20:30;;;;;;;0.10;0.10;;;;;;;;;;5057853;28;20246;-62
2022/05/27 01:23:21;;;;;;;0.10;0.10;;;;;;;;;;5087634;28;20504;-62
2022/05/27 01:26:17;;;;;;;0.10;0.10;;;;;;;;;;5063795;28;20587;-62
2022/05/27 01:28:44;;;;;;;0.10;0.10;;;;;;;;;;5074879;28;20560;-63
2022/05/27 01:31:22;;;;;;;0.10;0.10;;;;;;;;;;5069543;28;20235;-63
2022/05/27 01:33:55;;;;;;;0.10;0.10;;;;;;;;;;5073997;28;20211;-62
2022/05/27 01:36:27;;;;;;;0.10;0.10;;;;;;;;;;5072480;28;20312;-63
2022/05/27 01:38:59;;;;;;;0.10;0.10;;;;;;;;;;5072526;28;20522;-62
2022/05/27 01:41:27;;;;;;;0.10;0.10;;;;;;;;;;5073588;28;20273;-62
2022/05/27 01:43:59;;;;;;;0.10;0.10;;;;;;;;;;5072220;28;20275;-62
2022/05/27 01:46:30;;;;;;;0.10;0.10;;;;;;;;;;5073405;28;20312;-62
2022/05/27 01:49:01;;;;;;;0.00;0.00;;;;;;;;;;5071797;28;20212;-62
2022/05/27 01:51:30;;;;;;;0.00;0.00;;;;;;;;;;5074005;28;20235;-62
2022/05/27 01:54:00;;;;;;;0.10;0.10;;;;;;;;;;5071273;28;20372;-63
2022/05/27 01:56:28;;;;;;;0.07;0.07;;;;;;;;;;5073927;28;20285;-61
2022/05/27 01:58:56;;;;;;;0.10;0.10;;;;;;;;;;5072376;28;20206;-62
2022/05/27 02:01:25;;;;;;;0.10;0.10;;;;;;;;;;5076379;28;20463;-62
2022/05/27 02:03:55;;;;;;;0.10;0.10;;;;;;;;;;5076943;28;20223;-62
2022/05/27 02:06:24;;;;;;;0.10;0.10;;;;;;;;;;5076118;28;20402;-62
2022/05/27 02:08:54;;;;;;;0.10;0.10;;;;;;;;;;5076595;28;20203;-62
2022/05/27 02:11:21;;;;;;;0.10;0.10;;;;;;;;;;5075918;28;20562;-62
2022/05/27 02:13:51;;;;;;;0.10;0.10;;;;;;;;;;5077348;28;20561;-63
2022/05/27 02:16:19;;;;;;;0.00;0.00;;;;;;;;;;5074771;28;20247;-61
2022/05/27 02:18:48;;;;;;;0.10;0.10;;;;;;;;;;5077609;28;20254;-62
2022/05/27 02:21:19;;;;;;;0.00;0.00;;;;;;;;;;5073842;28;20236;-61
2022/05/27 02:23:47;;;;;;;0.10;0.10;;;;;;;;;;5077982;28;20267;-62
2022/05/27 02:26:15;;;;;;;0.00;0.00;;;;;;;;;;5073774;28;20301;-63
2022/05/27 02:28:43;;;;;;;0.00;0.00;;;;;;;;;;5078469;28;20271;-63
2022/05/27 02:31:11;;;;;;;0.00;0.00;;;;;;;;;;5072438;28;20233;-63
2022/05/27 02:36:28;;;;;;;0.10;0.10;;;;;;;;;;5076651;28;20585;-63
2022/05/27 02:38:55;;;;;;;0.10;0.10;;;;;;;;;;5075055;28;20237;-62
2022/05/27 02:41:30;;;;;;;0.10;0.10;;;;;;;;;;5075585;28;20260;-62
2022/05/27 02:44:03;;;;;;;0.10;0.10;;;;;;;;;;5074092;28;20258;-62
2022/05/27 02:46:33;;;;;;;0.00;0.00;;;;;;;;;;5077938;28;20619;-61
2022/05/27 02:49:05;;;;;;;0.10;0.10;;;;;;;;;;5073447;28;20205;-64
2022/05/27 02:51:37;;;;;;;0.10;0.10;;;;;;;;;;5078001;28;20247;-62
2022/05/27 02:54:05;;;;;;;0.10;0.10;;;;;;;;;;5072644;28;20239;-62
2022/05/27 02:56:35;;;;;;;0.10;0.10;;;;;;;;;;5077875;28;20242;-63
2022/05/27 02:59:01;;;;;;;0.10;0.10;;;;;;;;;;5072597;28;20262;-62
2022/05/27 03:01:28;;;;;;;0.10;0.10;;;;;;;;;;5076941;28;20563;-62
2022/05/27 03:03:54;;;;;;;0.00;0.00;;;;;;;;;;5074692;28;20205;-62
2022/05/27 03:06:39;;;;;;;0.10;0.10;;;;;;;;;;5074694;28;20240;-62
2022/05/27 03:09:07;;;;;;;0.10;0.10;;;;;;;;;;5071971;28;20200;-62
2022/05/27 03:11:42;;;;;;;0.07;0.07;;;;;;;;;;5078004;28;20320;-63
2022/05/27 03:14:16;;;;;;;0.10;0.10;;;;;;;;;;5070327;28;20511;-63
2022/05/27 03:16:48;;;;;;;0.10;0.10;;;;;;;;;;5080557;28;20243;-62
2022/05/27 03:19:24;;;;;;;0.10;0.10;;;;;;;;;;5068965;28;20196;-63
2022/05/27 03:21:56;;;;;;;0.10;0.10;;;;;;;;;;5082605;28;20545;-62
2022/05/27 03:24:28;;;;;;;0.10;0.10;;;;;;;;;;5066847;28;20488;-63
2022/05/27 03:26:59;;;;;;;0.10;0.10;;;;;;;;;;5083246;28;20275;-63
2022/05/27 03:29:29;;;;;;;0.10;0.10;;;;;;;;;;5065663;28;20211;-62
2022/05/27 03:31:58;;;;;;;0.10;0.10;;;;;;;;;;5083656;27;20243;-62
2022/05/27 03:34:26;;;;;;;0.10;0.10;;;;;;;;;;5066482;28;20204;-62
2022/05/27 03:36:58;;;;;;;0.00;0.00;;;;;;;;;;5082531;28;20251;-62
2022/05/27 03:39:28;;;;;;;0.10;0.10;;;;;;;;;;5066446;28;20236;-62
2022/05/27 03:41:56;;;;;;;0.03;0.03;;;;;;;;;;5083077;28;20237;-62
2022/05/27 03:44:26;;;;;;;0.10;0.10;;;;;;;;;;5066518;28;20385;-62
2022/05/27 03:46:53;;;;;;;0.00;0.00;;;;;;;;;;5082778;28;20240;-63
2022/05/27 03:49:19;;;;;;;0.10;0.10;;;;;;;;;;5067190;28;20393;-62
2022/05/27 03:51:49;;;;;;;0.00;0.00;;;;;;;;;;5080477;28;20231;-62
2022/05/27 03:54:17;;;;;;;0.10;0.10;;;;;;;;;;5068185;28;20209;-62
2022/05/27 03:56:43;;;;;;;0.03;0.03;;;;;;;;;;5078809;28;20320;-63
2022/05/27 03:59:10;;;;;;;0.10;0.10;;;;;;;;;;5070262;28;20208;-62
2022/05/27 04:01:37;;;;;;;0.10;0.10;;;;;;;;;;5075152;28;20345;-63
2022/05/27 04:04:05;;;;;;;0.10;0.10;;;;;;;;;;5073130;28;20208;-62
2022/05/27 04:06:31;;;;;;;0.00;0.00;;;;;;;;;;5074844;28;20280;-63
2022/05/27 04:08:58;;;;;;;0.10;0.10;;;;;;;;;;5073755;28;20503;-63
2022/05/27 04:11:26;;;;;;;0.10;0.10;;;;;;;;;;5074178;28;20245;-64
2022/05/27 04:13:52;;;;;;;0.10;0.10;;;;;;;;;;5074229;28;20274;-63
2022/05/27 04:16:18;;;;;;;0.00;0.00;;;;;;;;;;5072796;28;20488;-63
2022/05/27 04:18:44;;;;;;;0.10;0.10;;;;;;;;;;5076076;28;20231;-62
2022/05/27 04:21:11;;;;;;;0.10;0.10;;;;;;;;;;5070714;28;20243;-62
2022/05/27 04:23:37;;;;;;;0.00;0.00;;;;;;;;;;5077173;28;20536;-62
2022/05/27 04:26:04;;;;;;;0.10;0.10;;;;;;;;;;5068748;28;20480;-63
2022/05/27 04:28:32;;;;;;;0.10;0.10;;;;;;;;;;5079160;28;20282;-62
2022/05/27 04:30:58;;;;;;;0.10;0.10;;;;;;;;;;5067243;28;20297;-62
2022/05/27 04:33:24;;;;;;;0.10;0.10;;;;;;;;;;5080845;28;20231;-61
2022/05/27 04:35:50;;;;;;;0.00;0.00;;;;;;;;;;5065109;28;20239;-62
2022/05/27 04:38:17;;;;;;;0.10;0.10;;;;;;;;;;5082973;28;20371;-62
2022/05/27 04:40:43;;;;;;;0.10;0.10;;;;;;;;;;5063338;28;20301;-62
2022/05/27 04:43:09;;;;;;;0.10;0.10;;;;;;;;;;5084879;28;20558;-62
2022/05/27 04:45:37;;;;;;;0.10;0.10;;;;;;;;;;5061125;28;20240;-62
2022/05/27 04:48:03;;;;;;;0.00;0.00;;;;;;;;;;5086578;28;20511;-62
2022/05/27 04:50:29;;;;;;;0.00;0.00;;;;;;;;;;5059376;28;20420;-63
2022/05/27 04:52:56;;;;;;;0.10;0.10;;;;;;;;;;5088244;28;20277;-63
2022/05/27 04:55:22;;;;;;;0.00;0.00;;;;;;;;;;5057386;28;20563;-63
2022/05/27 04:57:51;;;;;;;0.00;0.00;;;;;;;;;;5089847;28;20205;-63
2022/05/27 05:00:18;;;;;;;0.07;0.07;;;;;;;;;;5055466;28;20212;-62
2022/05/27 05:02:46;;;;;;;0.10;0.10;;;;;;;;;;5091225;28;20204;-62
2022/05/27 05:05:13;;;;;;;0.00;0.00;;;;;;;;;;5054228;28;20353;-62
2022/05/27 05:07:41;;;;;;;0.10;0.10;;;;;;;;;;5092313;28;20294;-62
2022/05/27 05:10:07;;;;;;;0.00;0.00;;;;;;;;;;5053088;28;20232;-63
2022/05/27 05:12:34;;;;;;;0.07;0.07;;;;;;;;;;5093851;28;20231;-63
2022/05/27 05:15:00;;;;;;;0.00;0.00;;;;;;;;;;5062747;28;20212;-62
2022/05/27 05:17:26;;;;;;;0.10;0.10;;;;;;;;;;5084764;28;20243;-62
2022/05/27 05:19:55;;;;;;;0.10;0.10;;;;;;;;;;5062305;28;20205;-62
2022/05/27 05:22:21;;;;;;;0.10;0.10;;;;;;;;;;5084492;28;20249;-62
2022/05/27 05:24:48;;;;;;;0.00;0.00;;;;;;;;;;5062770;28;20204;-62
2022/05/27 05:27:15;;;;;;;0.03;0.03;;;;;;;;;;5084437;28;20297;-63
2022/05/27 05:29:41;;;;;;;0.10;0.10;;;;;;;;;;5062365;28;20235;-63
2022/05/27 05:32:07;;;;;;;0.10;0.10;;;;;;;;;;5084405;28;20292;-62
2022/05/27 05:34:33;;;;;;;0.10;0.10;;;;;;;;;;5064016;28;20204;-63
2022/05/27 05:37:01;;;;;;;0.00;0.00;;;;;;;;;;5087195;28;20626;-62
2022/05/27 05:39:27;;;;;;;0.10;0.10;;;;;;;;;;5067327;28;20253;-64
2022/05/27 05:41:57;;;;;;;0.10;0.10;;;;;;;;;;5085306;28;20246;-64
2022/05/27 05:44:23;;;;;;;0.10;0.10;;;;;;;;;;5068185;28;20207;-63
2022/05/27 05:46:49;;;;;;;0.00;0.00;;;;;;;;;;5083673;28;20238;-62
2022/05/27 05:49:16;;;;;;;0.10;0.10;;;;;;;;;;5070596;28;20531;-62
2022/05/27 05:51:42;;;;;;;0.00;0.00;;;;;;;;;;5081750;28;20273;-62
2022/05/27 05:54:09;;;;;;;0.00;0.00;;;;;;;;;;5072216;28;20251;-62
2022/05/27 05:56:36;;;;;;;0.03;0.03;;;;;;;;;;5080190;28;20588;-62
2022/05/27 05:59:02;;;;;;;0.10;0.10;;;;;;;;;;5073933;28;20395;-62
2022/05/27 06:01:28;;;;;;;0.10;0.10;;;;;;;;;;5077089;28;20287;-62
2022/05/27 06:03:54;;;;;;;0.10;0.10;;;;;;;;;;5076437;28;20219;-62
2022/05/27 06:06:20;;;;;;;0.00;0.00;;;;;;;;;;5075741;28;20249;-63
2022/05/27 06:08:47;;;;;;;0.10;0.10;;;;;;;;;;5077380;28;20204;-63
2022/05/27 06:11:14;;;;;;;0.10;0.10;;;;;;;;;;5073862;28;20239;-62
2022/05/27 06:13:41;;;;;;;0.00;0.00;;;;;;;;;;5079517;28;20456;-62
2022/05/27 06:16:07;;;;;;;0.10;0.10;;;;;;;;;;5072270;28;20246;-63
2022/05/27 06:18:34;;;;;;;0.10;0.10;;;;;;;;;;5081019;28;20207;-63
2022/05/27 06:21:00;;;;;;;0.00;0.00;;;;;;;;;;5070193;28;20241;-62
2022/05/27 06:23:28;;;;;;;0.10;0.10;;;;;;;;;;5082507;28;20204;-63
2022/05/27 06:25:55;;;;;;;0.10;0.10;;;;;;;;;;5068323;28;20425;-62
2022/05/27 06:36:50;;;;;;;0.10;0.10;;;;;;;;;;5013375;28;20284;-62
2022/05/27 06:39:16;;;;;;;0.10;0.10;;;;;;;;;;5023397;28;20237;-62
2022/05/27 06:41:43;;;;;;;0.00;0.00;;;;;;;;;;5030823;28;20259;-63
2022/05/27 06:44:10;;;;;;;0.03;0.03;;;;;;;;;;5065093;28;20216;-62
2022/05/27 06:46:37;;;;;;;0.10;0.10;;;;;;;;;;5078965;28;20241;-62
2022/05/27 06:49:04;;;;;;;0.07;0.07;;;;;;;;;;5071987;28;20260;-62
2022/05/27 06:51:31;;;;;;;0.10;0.10;;;;;;;;;;5077715;28;20374;-62
2022/05/27 06:53:57;;;;;;;0.10;0.10;;;;;;;;;;5073870;28;20296;-63
2022/05/27 06:56:23;;;;;;;0.10;0.10;;;;;;;;;;5075696;28;20558;-63
2022/05/27 06:58:50;;;;;;;0.10;0.10;;;;;;;;;;5076066;28;20241;-63
2022/05/27 07:01:17;;;;;;;0.10;0.10;;;;;;;;;;5073460;28;20240;-62
2022/05/27 07:03:44;;;;;;;0.00;0.00;;;;;;;;;;5077933;28;20289;-62
2022/05/27 07:06:12;;;;;;;0.10;0.10;;;;;;;;;;5071818;28;20243;-62
2022/05/27 07:08:38;;;;;;;0.10;0.10;;;;;;;;;;5078712;28;20207;-63
2022/05/27 07:11:05;;;;;;;0.00;0.00;;;;;;;;;;5070559;28;20242;-62
2022/05/27 07:13:31;;;;;;;0.07;0.07;;;;;;;;;;5080541;28;20240;-63
2022/05/27 07:15:57;;;;;;;0.10;0.10;;;;;;;;;;5068270;28;20243;-63
2022/05/27 07:18:25;;;;;;;0.10;0.10;;;;;;;;;;5083077;28;20205;-63
2022/05/27 07:20:51;;;;;;;0.10;0.10;;;;;;;;;;5066678;28;20307;-63
2022/05/27 07:23:18;;;;;;;0.10;0.10;;;;;;;;;;5083916;28;20473;-63
2022/05/27 07:25:44;;;;;;;0.10;0.10;;;;;;;;;;5064530;28;20262;-63
2022/05/27 07:28:12;;;;;;;0.10;0.10;;;;;;;;;;5086093;28;20205;-62
2022/05/27 07:30:39;;;;;;;0.10;0.10;;;;;;;;;;5062717;28;20239;-62
2022/05/27 07:33:05;;;;;;;0.10;0.10;;;;;;;;;;5087373;28;20248;-63
2022/05/27 07:35:33;;;;;;;0.10;0.10;;;;;;;;;;5061021;28;20257;-63
2022/05/27 07:37:59;;;;;;;0.10;0.10;;;;;;;;;;5089019;28;20274;-63
2022/05/27 07:40:25;;;;;;;0.00;0.00;;;;;;;;;;5059633;28;20267;-63
2022/05/27 07:42:52;;;;;;;0.10;0.10;;;;;;;;;;5090484;28;20402;-61
2022/05/27 07:45:21;;;;;;;0.10;0.10;;;;;;;;;;5057524;28;20251;-61
2022/05/27 07:47:47;;;;;;;0.10;0.10;;;;;;;;;;5091736;28;20466;-61
2022/05/27 07:50:14;;;;;;;0.10;0.10;;;;;;;;;;5056180;28;20405;-63
2022/05/27 07:52:42;;;;;;;0.10;0.10;;;;;;;;;;5093861;28;20279;-62
2022/05/27 07:55:09;;;;;;;0.03;0.03;;;;;;;;;;5054675;28;20206;-63
2022/05/27 07:57:40;;;;;;;0.10;0.10;;;;;;;;;;5093081;28;20263;-64
2022/05/27 08:00:08;;;;;;;0.10;0.10;;;;;;;;;;5054264;28;20202;-63
2022/05/27 08:02:34;;;;;;;0.07;0.07;;;;;;;;;;5094592;28;20256;-63
2022/05/27 08:05:01;;;;;;;0.10;0.10;;;;;;;;;;5063857;28;20244;-63
2022/05/27 08:07:28;;;;;;;0.10;0.10;;;;;;;;;;5085494;28;20249;-64
2022/05/27 08:09:55;;;;;;;0.10;0.10;;;;;;;;;;5063450;28;20221;-64
2022/05/27 08:12:21;;;;;;;0.00;0.00;;;;;;;;;;5085445;28;20332;-64
2022/05/27 08:14:48;;;;;;;0.10;0.10;;;;;;;;;;5063652;28;20229;-64
2022/05/27 08:17:15;;;;;;;0.13;0.13;;;;;;;;;;5085214;28;20307;-63
2022/05/27 08:19:41;;;;;;;0.10;0.10;;;;;;;;;;5063634;28;20397;-62
2022/05/27 08:22:07;;;;;;;0.00;0.00;;;;;;;;;;5085303;28;20256;-64
2022/05/27 08:24:33;;;;;;;0.00;0.00;;;;;;;;;;5063137;28;20201;-61
2022/05/27 08:27:01;;;;;;;0.00;0.00;;;;;;;;;;5083759;28;20242;-65
2022/05/27 08:29:28;;;;;;;0.10;0.10;;;;;;;;;;5064248;28;20241;-63
2022/05/27 08:31:54;;;;;;;0.10;0.10;;;;;;;;;;5082061;28;20632;-63
2022/05/27 08:39:48;;;;;;;0.10;0.10;;;;;;;;;;5062928;28;20227;-63
2022/05/27 08:42:20;;;;;;;0.10;0.10;;;;;;;;;;5084933;28;20311;-64
2022/05/27 08:44:48;;;;;;;0.10;0.10;;;;;;;;;;5062875;28;20193;-63
2022/05/27 08:47:20;;;;;;;0.00;0.00;;;;;;;;;;5084822;28;20538;-63
2022/05/27 08:49:47;;;;;;;0.77;0.77;;;;;;;;;;5063032;28;20200;-63
2022/05/27 08:52:18;;;;;;;0.00;0.00;;;;;;;;;;5084847;28;20311;-64
2022/05/27 08:54:47;;;;;;;0.00;0.00;;;;;;;;;;5062600;28;20219;-64
2022/05/27 09:00:02;;;;;;;0.10;0.10;;;;;;;;;;5062731;28;20381;-64
2022/05/27 09:02:31;;;;;;;0.10;0.10;;;;;;;;;;5084692;28;20246;-64
2022/05/27 09:05:02;;;;;;;2.23;2.17;;;;;;;;;;5062976;28;20210;-64
2022/05/27 09:07:35;;;;;;;0.00;0.00;;;;;;;;;;5084575;28;20260;-65
2022/05/27 09:10:03;;;;;;;0.00;0.00;;;;;;;;;;5062696;28;20206;-64
2022/05/27 09:12:41;;;;;;;0.20;0.20;;;;;;;;;;5084655;28;20268;-66
2022/05/27 09:15:17;;;;;;;0.00;0.00;;;;;;;;;;5052760;28;20213;-64
2022/05/27 09:17:44;;;;;;;0.10;0.10;;;;;;;;;;5091627;28;20350;-63
2022/05/27 09:20:24;;;;;;;0.10;0.10;;;;;;;;;;5053679;28;20220;-64
2022/05/27 09:22:55;;;;;;;0.00;0.00;;;;;;;;;;5089257;28;20215;-66
2022/05/27 09:25:25;;;;;;;0.10;0.10;;;;;;;;;;5056512;28;20238;-64
2022/05/27 09:27:58;;;;;;;0.00;0.00;;;;;;;;;;5089090;28;20501;-64
2022/05/27 09:30:26;;;;;;;0.10;0.10;;;;;;;;;;5057591;28;20904;-64
2022/05/27 09:32:54;;;;;;;0.03;0.03;;;;;;;;;;5088917;28;20218;-62
2022/05/27 09:35:24;;;;;;;0.00;0.00;;;;;;;;;;5056642;28;20205;-64
2022/05/27 09:37:51;;;;;;;0.10;0.10;;;;;;;;;;5089417;28;20256;-63
2022/05/27 09:40:19;;;;;;;0.10;0.10;;;;;;;;;;5055086;28;20508;-64
2022/05/27 09:42:47;;;;;;;0.10;0.10;;;;;;;;;;5090808;28;20524;-63
2022/05/27 09:45:13;;;;;;;0.03;0.03;;;;;;;;;;5054544;28;20206;-63
2022/05/27 09:47:42;;;;;;;0.05;0.05;;;;;;;;;;5091988;28;20273;-64
2022/05/27 09:50:11;;;;;;;0.00;0.00;;;;;;;;;;5053163;28;20522;-62
2022/05/27 09:52:39;;;;;;;0.10;0.10;;;;;;;;;;5092430;28;20279;-62
2022/05/27 09:55:15;;;;;;;0.10;0.10;;;;;;;;;;5055145;28;20407;-64
2022/05/27 09:57:54;;;;;;;0.00;0.00;;;;;;;;;;5062034;28;20495;-63
2022/05/27 10:00:33;;;;;;;0.05;0.05;;;;;;;;;;5056221;28;20389;-63
2022/05/27 10:03:00;;;;;;;0.10;0.10;;;;;;;;;;5086534;28;20216;-63
2022/05/27 10:05:28;;;;;;;0.05;0.05;;;;;;;;;;5057436;28;20253;-64
2022/05/27 10:07:55;;;;;;;0.10;0.10;;;;;;;;;;5087902;28;20218;-64
2022/05/27 10:10:24;;;;;;;0.00;0.00;;;;;;;;;;5056014;28;20212;-63
2022/05/27 10:12:51;;;;;;;0.30;0.30;;;;;;;;;;5088604;28;20205;-63
2022/05/27 10:15:27;;;;;;;0.00;0.00;;;;;;;;;;5055127;28;20448;-64
2022/05/27 10:17:53;;;;;;;0.00;0.00;;;;;;;;;;5087802;28;20207;-63
2022/05/27 10:20:29;;;;;;;0.00;0.00;;;;;;;;;;5056832;28;20213;-63
2022/05/27 10:23:00;;;;;;;0.10;0.10;;;;;;;;;;5091331;28;20227;-63
2022/05/27 10:25:31;;;;;;;0.05;0.05;;;;;;;;;;5060890;28;20248;-63
2022/05/27 10:27:57;;;;;;;0.03;0.03;;;;;;;;;;5090709;28;20395;-64
2022/05/27 10:30:25;;;;;;;0.00;0.00;;;;;;;;;;5060203;28;20527;-64
2022/05/27 10:32:51;;;;;;;0.00;0.00;;;;;;;;;;5092478;28;20213;-63
2022/05/27 10:35:34;;;;;;;0.00;0.00;;;;;;;;;;5058803;28;20566;-62
2022/05/27 10:38:10;;;;;;;0.00;0.00;;;;;;;;;;5090023;28;20278;-63
2022/05/27 10:40:38;;;;;;;0.00;0.00;;;;;;;;;;5063227;28;20298;-64
2022/05/27 10:43:11;;;;;;;0.00;0.00;;;;;;;;;;5088812;28;20390;-64
2022/05/27 10:45:39;;;;;;;0.00;0.00;;;;;;;;;;5063510;28;20245;-63
2022/05/27 10:48:17;;;;;;;0.00;0.00;;;;;;;;;;5087664;28;20206;-78
2022/05/27 10:50:48;;;;;;;0.08;0.08;;;;;;;;;;5064578;28;20342;-76
2022/05/27 10:53:29;;;;;;;0.10;0.10;;;;;;;;;;5085101;28;20214;-74
2022/05/27 10:56:00;;;;;;;0.00;0.00;;;;;;;;;;5066872;28;20294;-72
2022/05/27 11:04:35;;;;;;;0.10;0.10;;;;;;;;;;5070339;28;20206;-71
2022/05/27 11:07:15;;;;;;;0.00;0.00;;;;;;;;;;5085668;28;20238;-74
2022/05/27 11:09:47;;;;;;;0.00;0.00;;;;;;;;;;5064671;28;20299;-64
2022/05/27 11:12:17;;;;;;;0.10;0.10;;;;;;;;;;5086667;28;20342;-64
2022/05/27 11:17:41;;;;;;;0.08;0.08;;;;;;;;;;5053141;28;20375;-64
2022/05/27 11:20:41;;;;;;;0.00;0.00;;;;;;;;;;5054929;28;20192;-64
2022/05/27 11:23:15;;;;;;;0.10;0.10;;;;;;;;;;5014236;28;20236;-64
2022/05/27 11:25:52;;;;;;;0.00;0.00;;;;;;;;;;4998162;28;20283;-62
2022/05/27 11:28:37;;;;;;;0.00;0.00;;;;;;;;;;5048104;28;20247;-64
2022/05/27 11:31:11;;;;;;;0.00;0.00;;;;;;;;;;5069622;28;20241;-64
2022/05/27 11:33:40;;;;;;;0.00;0.00;;;;;;;;;;5078394;28;20306;-64
2022/05/27 11:36:28;;;;;;;0.10;0.10;;;;;;;;;;5070355;28;20335;-63
2022/05/27 11:39:19;;;;;;;0.00;0.00;;;;;;;;;;5074369;28;20328;-63
2022/05/27 11:41:50;;;;;;;0.10;0.10;;;;;;;;;;5079960;28;20251;-64
2022/05/27 11:44:21;;;;;;;0.20;0.20;;;;;;;;;;5068575;28;20227;-64
2022/05/27 11:46:59;;;;;;;0.00;0.00;;;;;;;;;;5081027;28;20306;-63
2022/05/27 11:49:35;;;;;;;0.00;0.00;;;;;;;;;;5065319;28;20488;-64
2022/05/27 11:52:08;;;;;;;0.00;0.00;;;;;;;;;;5084851;28;20245;-65
2022/05/27 11:54:52;;;;;;;0.00;0.00;;;;;;;;;;5064108;28;20217;-64
2022/05/27 11:57:25;;;;;;;0.00;0.00;;;;;;;;;;5060323;28;20547;-64
2022/05/27 11:59:55;;;;;;;0.00;0.00;;;;;;;;;;5063881;28;20317;-65
2022/05/27 12:02:27;;;;;;;0.10;0.10;;;;;;;;;;5085571;28;20252;-64
2022/05/27 12:04:55;;;;;;;0.10;0.10;;;;;;;;;;5063868;28;20550;-64
2022/05/27 12:07:24;;;;;;;0.10;0.10;;;;;;;;;;5085543;28;20607;-64
2022/05/27 12:09:52;;;;;;;0.05;0.05;;;;;;;;;;5063378;28;20303;-64
2022/05/27 12:12:21;;;;;;;0.03;0.03;;;;;;;;;;5085575;28;20234;-65
2022/05/27 12:14:52;;;;;;;0.00;0.00;;;;;;;;;;5063515;28;20553;-65
2022/05/27 12:17:21;;;;;;;0.00;0.00;;;;;;;;;;5085523;28;20238;-64
2022/05/27 12:19:51;;;;;;;0.00;0.00;;;;;;;;;;5063485;28;20278;-64
2022/05/27 12:22:19;;;;;;;0.10;0.10;;;;;;;;;;5085198;28;20538;-64
2022/05/27 12:24:47;;;;;;;0.43;0.43;;;;;;;;;;5063372;28;20499;-64
2022/05/27 12:27:15;;;;;;;0.00;0.00;;;;;;;;;;5085031;28;20250;-65
2022/05/27 12:29:43;;;;;;;0.03;0.03;;;;;;;;;;5063223;28;20270;-64
2022/05/27 12:32:13;;;;;;;0.00;0.00;;;;;;;;;;5085004;28;20242;-64
2022/05/27 12:34:41;;;;;;;0.00;0.00;;;;;;;;;;5063134;28;20231;-63
2022/05/27 12:37:21;;;;;;;0.00;0.00;;;;;;;;;;5084988;28;20444;-64
2022/05/27 12:39:49;;;;;;;0.00;0.00;;;;;;;;;;5063187;28;20538;-63
2022/05/27 12:42:18;;;;;;;0.05;0.05;;;;;;;;;;5084949;28;20261;-63
2022/05/27 12:44:45;;;;;;;0.00;0.00;;;;;;;;;;5062888;28;20429;-64
2022/05/27 12:47:16;;;;;;;0.10;0.10;;;;;;;;;;5085078;28;20295;-64
2022/05/27 12:49:45;;;;;;;0.10;0.10;;;;;;;;;;5063228;28;20322;-64
2022/05/27 12:52:26;;;;;;;0.00;0.00;;;;;;;;;;5084922;28;20452;-64
2022/05/27 12:55:00;;;;;;;0.00;0.00;;;;;;;;;;5062680;28;20228;-64
2022/05/27 13:03:30;;;;;;;0.00;0.00;;;;;;;;;;5085201;28;20199;-64
2022/05/27 13:06:03;;;;;;;0.00;0.00;;;;;;;;;;5066209;28;20301;-64
2022/05/27 13:08:33;;;;;;;0.03;0.03;;;;;;;;;;5079246;28;20207;-64
2022/05/27 13:11:00;;;;;;;0.00;0.00;;;;;;;;;;5067013;28;20635;-65
2022/05/27 13:13:29;;;;;;;0.10;0.10;;;;;;;;;;5079832;28;20211;-64
2022/05/27 13:16:07;;;;;;;0.00;0.00;;;;;;;;;;5065726;28;20238;-63
2022/05/27 13:18:39;;;;;;;0.03;0.03;;;;;;;;;;5078064;28;20480;-64
2022/05/27 13:21:09;;;;;;;0.00;0.00;;;;;;;;;;5068063;28;20286;-64
2022/05/27 13:23:49;;;;;;;0.00;0.00;;;;;;;;;;5077621;28;20282;-64
2022/05/27 13:26:18;;;;;;;0.00;0.00;;;;;;;;;;5070833;28;20477;-63
2022/05/27 13:28:47;;;;;;;0.00;0.00;;;;;;;;;;5074633;28;20205;-64
2022/05/27 13:31:15;;;;;;;0.03;0.03;;;;;;;;;;5070390;28;20245;-64
2022/05/27 13:33:46;;;;;;;0.10;0.10;;;;;;;;;;5076090;28;20425;-65
2022/05/27 13:36:18;;;;;;;0.00;0.00;;;;;;;;;;5070285;28;20242;-63
2022/05/27 13:38:48;;;;;;;0.10;0.10;;;;;;;;;;5074575;28;20484;-66
2022/05/27 13:41:17;;;;;;;0.05;0.05;;;;;;;;;;5070809;28;20238;-64
2022/05/27 13:43:46;;;;;;;0.00;0.00;;;;;;;;;;5074772;28;20204;-64
2022/05/27 13:46:15;;;;;;;0.10;0.10;;;;;;;;;;5070165;28;20243;-63
2022/05/27 13:48:44;;;;;;;0.10;0.10;;;;;;;;;;5075386;28;20207;-64
2022/05/27 13:51:13;;;;;;;0.00;0.00;;;;;;;;;;5069729;28;20238;-66
2022/05/27 13:53:40;;;;;;;0.05;0.05;;;;;;;;;;5076284;28;20218;-64
2022/05/27 13:56:12;;;;;;;0.10;0.10;;;;;;;;;;5070319;28;20280;-63
2022/05/27 13:58:45;;;;;;;0.00;0.00;;;;;;;;;;5080335;28;20239;-64
2022/05/27 14:01:12;;;;;;;0.00;0.00;;;;;;;;;;5073675;28;20281;-64
2022/05/27 14:03:39;;;;;;;0.10;0.10;;;;;;;;;;5079945;28;20207;-65
2022/05/27 14:06:06;;;;;;;0.00;0.00;;;;;;;;;;5072057;28;20300;-65
2022/05/27 14:08:38;;;;;;;0.10;0.10;;;;;;;;;;5081965;28;20302;-64
2022/05/27 14:11:14;;;;;;;0.10;0.10;;;;;;;;;;5071435;28;20238;-63
2022/05/27 14:13:41;;;;;;;0.10;0.10;;;;;;;;;;5078925;28;20266;-64
2022/05/27 14:16:09;;;;;;;0.00;0.00;;;;;;;;;;5071597;28;20242;-64
2022/05/27 14:18:36;;;;;;;0.00;0.00;;;;;;;;;;5081159;28;20196;-65
2022/05/27 14:23:49;;;;;;;0.05;0.05;;;;;;;;;;5077324;28;20246;-63
2022/05/27 14:26:15;;;;;;;0.10;0.10;;;;;;;;;;5073984;28;20287;-63
2022/05/27 14:28:44;;;;;;;0.00;0.00;;;;;;;;;;5078776;28;20207;-63
2022/05/27 14:31:14;;;;;;;0.03;0.03;;;;;;;;;;5072540;28;20253;-63
2022/05/27 14:33:43;;;;;;;0.00;0.00;;;;;;;;;;5079469;28;20204;-62
2022/05/27 14:36:09;;;;;;;0.00;0.00;;;;;;;;;;5072624;28;20543;-64
2022/05/27 14:38:36;;;;;;;0.10;0.10;;;;;;;;;;5081171;28;20207;-64
2022/05/27 14:41:05;;;;;;;0.00;0.00;;;;;;;;;;5070992;28;20309;-64
2022/05/27 14:43:36;;;;;;;0.10;0.10;;;;;;;;;;5082076;28;20382;-63
2022/05/27 14:46:12;;;;;;;0.10;0.10;;;;;;;;;;5070780;28;20248;-64
2022/05/27 14:48:39;;;;;;;0.10;0.10;;;;;;;;;;5080170;28;20232;-66
2022/05/27 14:51:23;;;;;;;0.00;0.00;;;;;;;;;;5071485;28;20240;-64
2022/05/27 14:53:50;;;;;;;0.00;0.00;;;;;;;;;;5077489;28;20265;-65
2022/05/27 14:56:23;;;;;;;0.08;0.08;;;;;;;;;;5074140;28;20263;-65
2022/05/27 14:58:49;;;;;;;0.03;0.03;;;;;;;;;;5077309;28;20210;-66
2022/05/27 15:01:28;;;;;;;0.00;0.00;;;;;;;;;;5073959;28;20244;-66
2022/05/27 15:04:13;;;;;;;0.03;0.03;;;;;;;;;;5075652;28;20209;-64
2022/05/27 15:06:41;;;;;;;0.10;0.10;;;;;;;;;;5079844;28;20290;-64
2022/05/27 15:09:10;;;;;;;0.00;0.00;;;;;;;;;;5071808;28;20278;-64
2022/05/27 15:11:38;;;;;;;0.00;0.00;;;;;;;;;;5079445;28;20248;-65
2022/05/27 15:14:19;;;;;;;0.10;0.10;;;;;;;;;;5072697;28;20210;-64
2022/05/27 15:16:52;;;;;;;0.10;0.10;;;;;;;;;;5081596;28;20417;-64
2022/05/27 15:19:20;;;;;;;0.52;0.52;;;;;;;;;;5068687;28;20181;-64
2022/05/27 15:21:47;;;;;;;0.10;0.10;;;;;;;;;;5080842;28;20255;-63
2022/05/27 15:24:19;;;;;;;0.10;0.10;;;;;;;;;;5071059;28;20234;-65
2022/05/27 15:35:01;;;;;;;0.00;0.00;;;;;;;;;;5064799;28;20414;-65
2022/05/27 15:37:27;;;;;;;0.13;0.13;;;;;;;;;;5086875;28;20242;-64
2022/05/27 15:39:54;;;;;;;0.00;0.00;;;;;;;;;;5064945;28;20213;-65
2022/05/27 15:42:22;;;;;;;0.00;0.00;;;;;;;;;;5086513;28;20264;-64